Kendall Tamiami Executive Airport
KTMB : rendu visible

Aérodrome :











RETROUVEZ-NOUS SUR...

 
LOGIN :

S'inscrire | Disclaimer

   EN    FR    IT 

 









Légende :    VFR   VFR Marginal   IFR   IFR Intensif   IFR Très Intensif
Visi : 
Plafond : 
>= 8 km
>= 3000ft
5 à 8 km
1000 à 3000 ft
1500m à 5 km
500 à 1000 ft
800 à 1500m
200 à 500 ft
< 800m
< 200 ft
Symboles :   Orages  Brouillard  Fortes neiges  Fortes précipitations  Vent > 20 kt






- Altitude de l'aérodrome : 8 ft


KTMB - Kendall Tamiami Executive

DERNIER METAR :
  • 092053Z 25009KT 10SM CLR 36/21 A2992 RMK AO2 SLP129 T03560206 56014

METARs EXPIRÉS :
  • 091953Z 31006KT 10SM CLR 36/22 A2992 RMK AO2 SLP132 T03560222
  • 091853Z 29008KT 10SM CLR 35/22 A2994 RMK AO2 SLP139 T03500217

TAF KTMB
Valide du 09 à 18h jusqu'au 10 à 18h UTC


091720Z 0918/1018 VRB04KT P6SM FEW030 SCT100 BKN250
FM092100 17008KT P6SM VCTS SCT035CB SCT200
FM100100 VRB04KT P6SM FEW025 SCT150
FIR KZMA / Amérique du Nord



MET'MAP, la Météo Aéronautique d'un coup d'oeil ! - Copyright ORBIFLY Décembre 2007 - Disclaimer

ORBIFLY MET'MAP TEAM :

Programmation & Développement : Alexandra Zaïnal
Sur une idée originale de : Baudouin d'Aumeries
Assistance à la programmation : Marc-Olivier Méhu
Soutien technique & logistique : Manuel Goepfert

Contact : metmap@orbifly.com




SOURCES & CREDITS :

   NOAA       Earth
Advisory